createdAt,value
2022-09-30T00:01:07.363Z,13.82
2022-09-30T00:03:33.885Z,13.82
2022-09-30T00:06:07.926Z,13.80
2022-09-30T00:08:36.450Z,13.81
2022-09-30T00:11:09.378Z,13.79
2022-09-30T00:13:38.290Z,13.80
2022-09-30T00:16:05.348Z,13.77
2022-09-30T00:18:32.584Z,13.75
2022-09-30T00:20:59.856Z,13.74
2022-09-30T00:23:26.435Z,13.71
2022-09-30T00:25:58.958Z,13.67
2022-09-30T00:28:26.004Z,13.67
2022-09-30T00:30:52.799Z,13.64
2022-09-30T00:33:19.404Z,13.62
2022-09-30T00:35:45.929Z,13.61
2022-09-30T00:38:12.453Z,13.58
2022-09-30T00:40:39.325Z,13.54
2022-09-30T00:43:17.445Z,13.46
2022-09-30T00:45:53.901Z,13.43
2022-09-30T00:48:34.217Z,13.37
2022-09-30T00:51:02.887Z,13.37
2022-09-30T00:53:48.434Z,13.29
2022-09-30T00:56:24.502Z,13.28
2022-09-30T00:58:59.928Z,13.23
2022-09-30T01:01:27.016Z,13.23
2022-09-30T01:04:05.704Z,13.20
2022-09-30T01:06:32.405Z,13.17
2022-09-30T01:08:59.095Z,13.15
2022-09-30T01:11:27.800Z,13.11
2022-09-30T01:13:58.069Z,13.09
2022-09-30T01:16:53.613Z,13.05
2022-09-30T01:19:40.041Z,13.05
2022-09-30T01:22:20.614Z,13.05
2022-09-30T01:24:50.033Z,13.06
2022-09-30T01:27:50.085Z,13.02
2022-09-30T01:30:21.543Z,13.02
2022-09-30T01:33:02.133Z,12.99
2022-09-30T01:35:34.411Z,13.01
2022-09-30T01:38:28.706Z,12.94
2022-09-30T01:41:05.790Z,12.92
2022-09-30T01:43:32.355Z,12.90
2022-09-30T01:46:21.041Z,12.86
2022-09-30T01:48:50.432Z,12.81
2022-09-30T01:51:27.192Z,12.74
2022-09-30T01:54:05.359Z,12.70
2022-09-30T01:56:42.006Z,12.65
2022-09-30T01:59:17.129Z,12.62
2022-09-30T02:02:04.560Z,12.56
2022-09-30T02:04:43.096Z,12.52
2022-09-30T02:07:16.192Z,12.50
2022-09-30T02:09:51.903Z,12.49
2022-09-30T02:12:21.587Z,12.50
2022-09-30T02:14:55.731Z,12.47
2022-09-30T02:17:43.245Z,12.43
2022-09-30T02:20:15.657Z,12.48
2022-09-30T02:23:16.312Z,12.46
2022-09-30T02:25:47.328Z,12.52
2022-09-30T02:28:20.920Z,12.52
2022-09-30T02:30:52.492Z,12.53
2022-09-30T02:34:01.180Z,12.51
2022-09-30T02:36:37.550Z,12.55
2022-09-30T02:39:29.750Z,12.54
2022-09-30T02:42:06.670Z,12.54
2022-09-30T02:44:33.271Z,12.54
2022-09-30T02:47:10.710Z,12.51
2022-09-30T02:50:18.042Z,12.47
2022-09-30T02:52:52.942Z,12.42
2022-09-30T02:55:53.367Z,12.38
2022-09-30T02:58:25.976Z,12.34
2022-09-30T03:00:54.757Z,12.30
2022-09-30T03:03:21.283Z,12.25
2022-09-30T03:05:50.040Z,12.22
2022-09-30T03:08:16.978Z,12.19
2022-09-30T03:10:45.154Z,12.17
2022-09-30T03:13:48.954Z,12.10
2022-09-30T03:16:18.560Z,12.12
2022-09-30T03:19:12.520Z,12.10
2022-09-30T03:21:57.435Z,12.12
2022-09-30T03:25:09.727Z,12.06
2022-09-30T03:28:08.483Z,12.06
2022-09-30T03:30:45.576Z,12.08
2022-09-30T03:33:27.829Z,12.07
2022-09-30T03:36:06.085Z,12.04
2022-09-30T03:39:13.940Z,12.01
2022-09-30T03:41:50.326Z,12.03
2022-09-30T03:44:20.715Z,12.02
2022-09-30T03:46:52.957Z,12.01
2022-09-30T03:49:25.594Z,12.00
2022-09-30T03:51:53.153Z,12.00
2022-09-30T03:54:19.945Z,11.97
2022-09-30T03:56:46.473Z,11.95
2022-09-30T03:59:23.140Z,11.91
2022-09-30T04:01:50.353Z,11.91
2022-09-30T04:04:16.964Z,11.89
2022-09-30T04:06:43.928Z,11.88
2022-09-30T04:09:10.585Z,11.86
2022-09-30T04:11:37.145Z,11.86
2022-09-30T04:14:03.841Z,11.86
2022-09-30T04:16:30.810Z,11.85
2022-09-30T04:18:57.497Z,11.85
2022-09-30T04:21:24.187Z,11.85
2022-09-30T04:23:50.954Z,11.84
2022-09-30T04:26:20.102Z,11.84
2022-09-30T04:28:47.036Z,11.83
2022-09-30T04:31:14.646Z,11.83
2022-09-30T04:33:41.283Z,11.81
2022-09-30T04:36:07.872Z,11.79
2022-09-30T04:38:34.412Z,11.75
2022-09-30T04:41:05.863Z,11.72
2022-09-30T04:43:34.281Z,11.71
2022-09-30T04:46:01.463Z,11.68
2022-09-30T04:48:30.357Z,11.65
2022-09-30T04:50:59.568Z,11.61
2022-09-30T04:53:26.292Z,11.59
2022-09-30T04:55:59.806Z,11.53
2022-09-30T04:58:26.701Z,11.52
2022-09-30T05:01:00.427Z,11.45
2022-09-30T05:03:27.122Z,11.44
2022-09-30T05:05:53.704Z,11.38
2022-09-30T05:08:20.670Z,11.34
2022-09-30T05:10:57.425Z,11.28
2022-09-30T05:13:25.550Z,11.26
2022-09-30T05:15:52.888Z,11.22
2022-09-30T05:18:20.514Z,11.19
2022-09-30T05:20:51.516Z,11.14
2022-09-30T05:23:19.678Z,11.13
2022-09-30T05:25:47.622Z,11.10
2022-09-30T05:28:15.030Z,11.07
2022-09-30T05:30:43.551Z,11.03
2022-09-30T05:33:10.782Z,11.01
2022-09-30T05:35:37.443Z,10.98
2022-09-30T05:38:04.758Z,10.95
2022-09-30T05:40:32.244Z,10.93
2022-09-30T05:42:59.816Z,10.91
2022-09-30T05:45:27.008Z,10.90
2022-09-30T05:47:54.310Z,10.90
2022-09-30T05:50:22.418Z,10.89
2022-09-30T05:52:49.631Z,10.90
2022-09-30T05:55:17.417Z,10.88
2022-09-30T05:57:46.163Z,10.87
2022-09-30T06:00:12.818Z,10.85
2022-09-30T06:02:39.612Z,10.85
2022-09-30T06:05:07.083Z,10.84
2022-09-30T06:07:34.603Z,10.84
2022-09-30T06:10:05.741Z,10.84
2022-09-30T06:12:32.307Z,10.82
2022-09-30T06:14:58.854Z,10.84
2022-09-30T06:17:25.412Z,10.84
2022-09-30T06:19:51.970Z,10.82
2022-09-30T06:22:18.782Z,10.82
2022-09-30T06:24:46.383Z,10.82
2022-09-30T06:27:13.525Z,10.82
2022-09-30T06:29:40.161Z,10.81
2022-09-30T06:32:07.804Z,10.80
2022-09-30T06:34:34.367Z,10.80
2022-09-30T06:37:01.434Z,10.80
2022-09-30T06:39:28.207Z,10.80
2022-09-30T06:41:56.407Z,10.80
2022-09-30T06:44:22.950Z,10.80
2022-09-30T06:46:53.962Z,10.80
2022-09-30T06:49:21.301Z,10.80
2022-09-30T06:51:47.838Z,10.80
2022-09-30T06:54:14.395Z,10.79
2022-09-30T06:56:41.040Z,10.79
2022-09-30T06:59:08.752Z,10.80
2022-09-30T07:01:35.343Z,10.81
2022-09-30T07:04:08.065Z,10.81
2022-09-30T07:06:34.646Z,10.81
2022-09-30T07:09:01.227Z,10.82
2022-09-30T07:11:27.799Z,10.81
2022-09-30T07:13:54.382Z,10.82
2022-09-30T07:16:21.500Z,10.82
2022-09-30T07:18:48.159Z,10.84
2022-09-30T07:21:16.397Z,10.84
2022-09-30T07:23:48.246Z,10.86
2022-09-30T07:26:20.933Z,10.86
2022-09-30T07:28:48.358Z,10.89
2022-09-30T07:31:35.288Z,10.92
2022-09-30T07:34:07.513Z,10.97
2022-09-30T07:36:35.716Z,11.00
2022-09-30T07:39:05.588Z,11.03
2022-09-30T07:41:33.389Z,11.08
2022-09-30T07:43:59.959Z,11.11
2022-09-30T07:46:30.764Z,11.15
2022-09-30T07:49:01.514Z,11.19
2022-09-30T07:51:33.441Z,11.22
2022-09-30T07:54:13.265Z,11.24
2022-09-30T07:57:08.183Z,11.31
2022-09-30T07:59:29.659Z,11.34
2022-09-30T08:01:56.612Z,11.40
2022-09-30T08:04:25.192Z,11.41
2022-09-30T08:06:55.222Z,11.47
2022-09-30T08:09:23.812Z,11.52
2022-09-30T08:11:50.985Z,11.56
2022-09-30T08:14:21.336Z,11.62
2022-09-30T08:16:48.336Z,11.67
2022-09-30T08:19:19.501Z,11.73
2022-09-30T08:21:47.081Z,11.79
2022-09-30T08:24:14.762Z,11.85
2022-09-30T08:26:41.552Z,11.90
2022-09-30T08:29:12.341Z,11.95
2022-09-30T08:31:41.871Z,11.99
2022-09-30T08:34:08.740Z,12.04
2022-09-30T08:36:35.305Z,12.09
2022-09-30T08:39:02.197Z,12.14
2022-09-30T08:42:02.210Z,12.17
2022-09-30T08:44:38.153Z,12.29
2022-09-30T08:47:35.595Z,12.33
2022-09-30T08:50:14.257Z,12.44
2022-09-30T08:52:49.120Z,12.49
2022-09-30T08:55:25.408Z,12.55
2022-09-30T08:57:55.194Z,12.61
2022-09-30T09:00:22.784Z,12.68
2022-09-30T09:02:54.924Z,12.71
2022-09-30T09:05:51.539Z,12.78
2022-09-30T09:09:07.000Z,12.86
2022-09-30T09:11:45.607Z,12.97
2022-09-30T09:14:53.658Z,13.05
2022-09-30T09:18:18.214Z,13.11
2022-09-30T09:20:42.815Z,13.24
2022-09-30T09:23:12.859Z,13.32
2022-09-30T09:25:39.843Z,13.38
2022-09-30T09:28:22.696Z,13.42
2022-09-30T09:30:55.824Z,13.50
2022-09-30T09:33:26.327Z,13.56
2022-09-30T09:36:11.591Z,13.64
2022-09-30T09:39:01.282Z,13.71
2022-09-30T09:42:12.604Z,13.81
2022-09-30T09:44:41.839Z,13.95
2022-09-30T09:47:17.370Z,14.02
2022-09-30T09:49:55.155Z,14.11
2022-09-30T09:52:27.151Z,14.18
2022-09-30T09:54:56.805Z,14.27
2022-09-30T09:57:27.860Z,14.37
2022-09-30T10:00:28.954Z,14.45
2022-09-30T10:03:08.374Z,14.59
2022-09-30T10:05:42.437Z,14.72
2022-09-30T10:08:16.838Z,14.82
2022-09-30T10:10:44.877Z,14.96
2022-09-30T10:13:20.528Z,15.05
2022-09-30T10:15:48.500Z,15.21
2022-09-30T10:18:23.730Z,15.31
2022-09-30T10:21:02.505Z,15.45
2022-09-30T10:23:37.601Z,15.65
2022-09-30T10:26:17.849Z,15.83
2022-09-30T10:28:49.035Z,16.00
2022-09-30T10:31:27.142Z,16.19
2022-09-30T10:34:13.942Z,16.36
2022-09-30T10:36:43.496Z,16.57
2022-09-30T10:39:34.676Z,16.71
2022-09-30T10:42:26.243Z,16.87
2022-09-30T10:44:57.110Z,17.03
2022-09-30T10:47:26.429Z,17.10
2022-09-30T10:50:01.053Z,17.14
2022-09-30T10:52:33.009Z,17.20
2022-09-30T10:55:10.674Z,17.29
2022-09-30T10:57:40.450Z,17.40
2022-09-30T11:00:13.893Z,17.53
2022-09-30T11:02:48.307Z,17.70
2022-09-30T11:05:24.564Z,17.94
2022-09-30T11:08:21.986Z,18.23
2022-09-30T11:10:57.463Z,18.73
2022-09-30T11:13:37.521Z,19.31
2022-09-30T11:16:30.196Z,20.04
2022-09-30T11:19:04.115Z,20.93
2022-09-30T11:21:49.163Z,21.81
2022-09-30T11:24:32.702Z,22.58
2022-09-30T11:27:11.915Z,23.26
2022-09-30T11:30:12.475Z,23.80
2022-09-30T11:32:54.194Z,24.28
2022-09-30T11:35:42.085Z,24.75
2022-09-30T11:38:27.153Z,25.24
2022-09-30T11:41:05.808Z,25.55
2022-09-30T11:44:00.417Z,25.59
2022-09-30T11:46:57.389Z,25.45
2022-09-30T11:49:37.549Z,25.25
2022-09-30T11:52:19.924Z,24.96
2022-09-30T11:55:13.000Z,24.79
2022-09-30T11:58:39.855Z,24.55
2022-09-30T12:01:10.520Z,24.51
2022-09-30T12:03:42.440Z,24.54
2022-09-30T12:06:27.713Z,24.69
2022-09-30T12:09:02.700Z,25.01
2022-09-30T12:11:44.035Z,25.38
2022-09-30T12:14:21.374Z,25.86
2022-09-30T12:16:49.104Z,26.30
2022-09-30T12:19:37.881Z,26.66
2022-09-30T12:22:16.302Z,27.06
2022-09-30T12:24:45.840Z,27.40
2022-09-30T12:27:22.474Z,27.70
2022-09-30T12:30:17.065Z,27.98
2022-09-30T12:33:14.223Z,28.28
2022-09-30T12:35:52.289Z,28.55
2022-09-30T12:38:27.887Z,28.68
2022-09-30T12:41:25.188Z,28.77
2022-09-30T12:44:12.280Z,28.92
2022-09-30T12:46:53.307Z,29.10
2022-09-30T12:49:25.101Z,29.23
2022-09-30T12:51:57.627Z,29.31
2022-09-30T12:54:30.455Z,29.35
2022-09-30T12:57:01.265Z,29.48
2022-09-30T12:59:34.592Z,29.38
2022-09-30T13:02:04.345Z,29.17
2022-09-30T13:04:33.289Z,28.90
2022-09-30T13:06:59.811Z,28.60
2022-09-30T13:09:38.162Z,28.28
2022-09-30T13:12:17.234Z,28.15
2022-09-30T13:14:44.005Z,28.19
2022-09-30T13:17:10.495Z,28.29
2022-09-30T13:19:36.962Z,28.46
2022-09-30T13:22:22.804Z,28.60
2022-09-30T13:25:03.085Z,28.79
2022-09-30T13:27:38.617Z,28.90
2022-09-30T13:30:17.291Z,28.98
2022-09-30T13:32:51.529Z,29.09
2022-09-30T13:35:33.912Z,29.11
2022-09-30T13:38:15.309Z,29.17
2022-09-30T13:41:07.734Z,29.24
2022-09-30T13:43:56.543Z,29.21
2022-09-30T13:46:28.289Z,29.20
2022-09-30T13:49:00.917Z,29.13
2022-09-30T13:51:33.215Z,28.99
2022-09-30T13:54:08.437Z,28.72
2022-09-30T13:56:37.591Z,28.46
2022-09-30T13:59:16.102Z,28.28
2022-09-30T14:02:00.857Z,28.26
2022-09-30T14:04:43.134Z,28.36
2022-09-30T14:07:47.239Z,28.57
2022-09-30T14:10:33.508Z,28.79
2022-09-30T14:13:28.413Z,28.81
2022-09-30T14:16:12.950Z,28.80
2022-09-30T14:19:06.188Z,28.87
2022-09-30T14:21:54.436Z,28.91
2022-09-30T14:24:27.336Z,28.92
2022-09-30T14:27:15.791Z,28.81
2022-09-30T14:30:00.581Z,28.70
2022-09-30T14:32:30.978Z,28.48
2022-09-30T14:34:59.823Z,28.16
2022-09-30T14:37:32.043Z,27.65
2022-09-30T14:39:58.839Z,27.17
2022-09-30T14:42:38.831Z,26.54
2022-09-30T14:45:08.040Z,26.11
2022-09-30T14:47:39.391Z,25.65
2022-09-30T14:50:16.714Z,25.22
2022-09-30T14:52:46.012Z,24.95
2022-09-30T14:55:30.705Z,24.59
2022-09-30T14:58:21.805Z,24.42
2022-09-30T15:01:00.798Z,24.41
2022-09-30T15:03:28.617Z,24.55
2022-09-30T15:05:57.023Z,24.69
2022-09-30T15:08:24.390Z,24.87
2022-09-30T15:10:55.654Z,25.05
2022-09-30T15:13:27.892Z,25.24
2022-09-30T15:15:54.604Z,25.32
2022-09-30T15:18:25.466Z,25.23
2022-09-30T15:20:55.146Z,25.05
2022-09-30T15:23:26.372Z,24.75
2022-09-30T15:25:53.961Z,24.46
2022-09-30T15:28:20.633Z,24.12
2022-09-30T15:30:47.420Z,23.79
2022-09-30T15:33:20.496Z,23.45
2022-09-30T15:35:47.164Z,23.19
2022-09-30T15:38:21.566Z,22.85
2022-09-30T15:40:59.048Z,22.56
2022-09-30T15:43:51.918Z,22.25
2022-09-30T15:46:27.693Z,21.99
2022-09-30T15:48:58.900Z,21.81
2022-09-30T15:51:33.353Z,21.56
2022-09-30T15:54:21.196Z,21.37
2022-09-30T15:56:47.768Z,21.18
2022-09-30T15:59:14.875Z,21.00
2022-09-30T16:01:50.136Z,20.80
2022-09-30T16:04:16.603Z,20.63
2022-09-30T16:06:56.088Z,20.41
2022-09-30T16:09:29.050Z,20.30
2022-09-30T16:12:06.255Z,20.13
2022-09-30T16:15:00.019Z,20.00
2022-09-30T16:17:30.199Z,19.95
2022-09-30T16:20:08.646Z,19.87
2022-09-30T16:22:41.299Z,19.78
2022-09-30T16:25:10.940Z,19.72
2022-09-30T16:27:38.609Z,19.67
2022-09-30T16:30:06.660Z,19.61
2022-09-30T16:32:37.284Z,19.56
2022-09-30T16:35:05.398Z,19.53
2022-09-30T16:37:31.985Z,19.48
2022-09-30T16:40:15.473Z,19.39
2022-09-30T16:42:42.077Z,19.39
2022-09-30T16:45:11.866Z,19.34
2022-09-30T16:47:38.433Z,19.30
2022-09-30T16:50:32.481Z,19.18
2022-09-30T16:52:59.313Z,19.17
2022-09-30T16:55:26.808Z,19.11
2022-09-30T16:57:57.235Z,19.01
2022-09-30T17:00:24.545Z,18.95
2022-09-30T17:02:51.151Z,18.88
2022-09-30T17:05:21.586Z,18.79
2022-09-30T17:07:53.101Z,18.68
2022-09-30T17:10:24.547Z,18.61
2022-09-30T17:12:51.711Z,18.54
2022-09-30T17:15:19.857Z,18.45
2022-09-30T17:17:47.183Z,18.35
2022-09-30T17:20:14.589Z,18.26
2022-09-30T17:22:41.492Z,18.17
2022-09-30T17:25:10.295Z,18.06
2022-09-30T17:27:37.379Z,17.97
2022-09-30T17:30:05.908Z,17.88
2022-09-30T17:32:32.495Z,17.81
2022-09-30T17:34:59.048Z,17.73
2022-09-30T17:37:27.136Z,17.64
2022-09-30T17:39:53.908Z,17.57
2022-09-30T17:42:38.768Z,17.52
2022-09-30T17:45:05.641Z,17.45
2022-09-30T17:47:32.162Z,17.38
2022-09-30T17:49:59.656Z,17.34
2022-09-30T17:52:26.494Z,17.28
2022-09-30T17:54:53.075Z,17.21
2022-09-30T17:57:20.918Z,17.16
2022-09-30T17:59:47.476Z,17.12
2022-09-30T18:02:17.544Z,17.05
2022-09-30T18:04:44.848Z,17.01
2022-09-30T18:07:12.726Z,16.98
2022-09-30T18:09:39.933Z,16.94
2022-09-30T18:12:07.478Z,16.89
2022-09-30T18:14:38.442Z,16.86
2022-09-30T18:17:06.994Z,16.80
2022-09-30T18:19:35.488Z,16.78
2022-09-30T18:22:02.749Z,16.73
2022-09-30T18:24:55.378Z,16.71
2022-09-30T18:27:22.775Z,16.68
2022-09-30T18:29:49.640Z,16.62
2022-09-30T18:32:17.576Z,16.58
2022-09-30T18:34:44.201Z,16.54
2022-09-30T18:37:10.733Z,16.50
2022-09-30T18:39:38.200Z,16.46
2022-09-30T18:42:05.121Z,16.44
2022-09-30T18:44:32.639Z,16.40
2022-09-30T18:46:59.938Z,16.36
2022-09-30T18:49:26.456Z,16.32
2022-09-30T18:51:52.981Z,16.28
2022-09-30T18:54:19.556Z,16.24
2022-09-30T18:56:46.418Z,16.21
2022-09-30T18:59:18.166Z,16.19
2022-09-30T19:01:48.312Z,16.17
2022-09-30T19:04:15.368Z,16.15
2022-09-30T19:06:47.558Z,16.10
2022-09-30T19:09:16.418Z,16.09
2022-09-30T19:11:44.880Z,16.07
2022-09-30T19:14:12.599Z,16.05
2022-09-30T19:16:40.447Z,16.05
2022-09-30T19:19:11.907Z,16.03
2022-09-30T19:21:39.386Z,16.03
2022-09-30T19:24:08.400Z,16.01
2022-09-30T19:26:37.230Z,16.00
2022-09-30T19:29:05.608Z,16.00
2022-09-30T19:31:33.959Z,15.97
2022-09-30T19:34:01.679Z,15.95
2022-09-30T19:36:28.974Z,15.93
2022-09-30T19:39:11.514Z,15.90
2022-09-30T19:41:38.824Z,15.87
2022-09-30T19:44:05.368Z,15.84
2022-09-30T19:46:31.952Z,15.81
2022-09-30T19:48:58.555Z,15.78
2022-09-30T19:51:25.389Z,15.74
2022-09-30T19:54:03.150Z,15.71
2022-09-30T19:56:33.198Z,15.68
2022-09-30T19:59:00.705Z,15.64
2022-09-30T20:01:29.302Z,15.62
2022-09-30T20:04:04.818Z,15.58
2022-09-30T20:06:32.574Z,15.57
2022-09-30T20:09:00.952Z,15.54
2022-09-30T20:11:36.092Z,15.53
2022-09-30T20:14:24.270Z,15.49
2022-09-30T20:16:51.604Z,15.49
2022-09-30T20:19:19.064Z,15.46
2022-09-30T20:21:46.485Z,15.44
2022-09-30T20:24:15.545Z,15.41
2022-09-30T20:26:43.933Z,15.39
2022-09-30T20:29:11.345Z,15.37
2022-09-30T20:31:41.089Z,15.34
2022-09-30T20:34:09.451Z,15.33
2022-09-30T20:36:36.479Z,15.34
2022-09-30T20:39:03.632Z,15.31
2022-09-30T20:41:35.027Z,15.29
2022-09-30T20:44:06.713Z,15.28
2022-09-30T20:46:34.215Z,15.27
2022-09-30T20:49:01.296Z,15.24
2022-09-30T20:51:30.407Z,15.24
2022-09-30T20:53:58.979Z,15.22
2022-09-30T20:56:28.472Z,15.23
2022-09-30T20:58:59.362Z,15.22
2022-09-30T21:01:26.146Z,15.21
2022-09-30T21:03:53.957Z,15.20
2022-09-30T21:06:30.354Z,15.15
2022-09-30T21:08:57.415Z,15.19
2022-09-30T21:11:24.416Z,15.18
2022-09-30T21:13:53.189Z,15.17
2022-09-30T21:16:22.416Z,15.18
2022-09-30T21:18:53.231Z,15.16
2022-09-30T21:21:24.674Z,15.17
2022-09-30T21:23:55.347Z,15.16
2022-09-30T21:26:21.884Z,15.16
2022-09-30T21:28:50.733Z,15.14
2022-09-30T21:31:22.777Z,15.13
2022-09-30T21:33:53.635Z,15.12
2022-09-30T21:36:21.363Z,15.10
2022-09-30T21:38:48.697Z,15.07
2022-09-30T21:41:15.904Z,15.06
2022-09-30T21:43:43.864Z,15.03
2022-09-30T21:46:13.603Z,15.02
2022-09-30T21:48:40.960Z,15.02
2022-09-30T21:51:08.184Z,15.01
2022-09-30T21:53:34.821Z,15.00
2022-09-30T21:56:03.568Z,15.00
2022-09-30T21:58:32.067Z,14.98
2022-09-30T22:01:04.426Z,14.96
2022-09-30T22:03:37.298Z,14.96
2022-09-30T22:06:07.150Z,14.95
2022-09-30T22:08:40.797Z,14.95
2022-09-30T22:11:19.940Z,14.93
2022-09-30T22:13:47.071Z,14.93
2022-09-30T22:16:19.720Z,14.91
2022-09-30T22:18:46.477Z,14.90
2022-09-30T22:21:14.522Z,14.88
2022-09-30T22:23:41.584Z,14.87
2022-09-30T22:26:08.693Z,14.87
2022-09-30T22:28:36.486Z,14.84
2022-09-30T22:31:20.261Z,14.81
2022-09-30T22:34:10.335Z,14.83
2022-09-30T22:36:57.478Z,14.83
2022-09-30T22:39:24.996Z,14.83
2022-09-30T22:41:55.663Z,14.80
2022-09-30T22:44:25.638Z,14.80
2022-09-30T22:46:57.643Z,14.77
2022-09-30T22:49:24.686Z,14.79
2022-09-30T22:51:57.543Z,14.75
2022-09-30T22:54:26.075Z,14.77
2022-09-30T22:56:54.873Z,14.78
2022-09-30T22:59:23.559Z,14.78
2022-09-30T23:01:50.613Z,14.79
2022-09-30T23:04:18.268Z,14.80
2022-09-30T23:06:48.394Z,14.79
2022-09-30T23:09:15.728Z,14.79
2022-09-30T23:11:42.472Z,14.80
2022-09-30T23:14:10.017Z,14.79
2022-09-30T23:16:36.796Z,14.80
2022-09-30T23:19:03.741Z,14.79
2022-09-30T23:21:31.143Z,14.79
2022-09-30T23:23:58.118Z,14.81
2022-09-30T23:26:27.217Z,14.80
2022-09-30T23:28:58.635Z,14.80
2022-09-30T23:31:25.641Z,14.82
2022-09-30T23:33:55.540Z,14.81
2022-09-30T23:36:26.965Z,14.83
2022-09-30T23:38:53.974Z,14.84
2022-09-30T23:41:21.421Z,14.85
2022-09-30T23:43:48.730Z,14.85
2022-09-30T23:46:17.953Z,14.84
2022-09-30T23:48:46.013Z,14.86
2022-09-30T23:51:13.981Z,14.87
2022-09-30T23:53:42.463Z,14.85
2022-09-30T23:56:15.450Z,14.85
2022-09-30T23:58:42.611Z,14.87
